Time;durP1;ratioP1;P1;durP2;ratioP2;P2;SDS_P1;SDS_P2;PMS_P1;PMS_P2;Temp;Humidity;BMP_temperature;BMP_pressure;BME280_temperature;BME280_humidity;BME280_pressure;Samples;Min_cycle;Max_cycle;Signal;HPM_P1;HPM_P2
2024/03/07 00:01:35;;;;;;;94.83;48.17;;;8.20;1.00;;;;;;5093731;27;20452;-77
2024/03/07 00:04:02;;;;;;;82.47;45.13;;;8.20;1.00;;;;;;5091354;27;20480;-76
2024/03/07 00:06:29;;;;;;;82.40;44.30;;;8.20;1.00;;;;;;5075596;28;20474;-76
2024/03/07 00:08:56;;;;;;;83.83;46.37;;;8.20;1.00;;;;;;5093260;27;20494;-76
2024/03/07 00:11:24;;;;;;;85.40;46.50;;;8.30;1.00;;;;;;5061946;28;20480;-77
2024/03/07 00:13:52;;;;;;;89.87;48.10;;;8.20;1.00;;;;;;5049256;28;21041;-78
2024/03/07 00:16:19;;;;;;;91.37;45.03;;;8.20;1.00;;;;;;5050083;28;20447;-77
2024/03/07 00:18:47;;;;;;;93.23;45.20;;;8.10;1.00;;;;;;5051919;28;20459;-77
2024/03/07 00:21:15;;;;;;;89.37;46.50;;;8.20;1.00;;;;;;5052578;28;20515;-79
2024/03/07 00:23:42;;;;;;;88.93;43.63;;;8.10;1.00;;;;;;5050384;28;20417;-78
2024/03/07 00:26:09;;;;;;;81.47;44.10;;;8.10;1.00;;;;;;5049674;28;20504;-77
2024/03/07 00:28:39;;;;;;;87.97;46.07;;;8.20;1.00;;;;;;5049197;28;20506;-79
2024/03/07 00:31:07;;;;;;;85.23;43.23;;;8.20;1.00;;;;;;5059183;28;20491;-77
2024/03/07 00:33:34;;;;;;;85.30;44.00;;;8.20;1.00;;;;;;5063291;28;20465;-76
2024/03/07 00:36:05;;;;;;;88.83;45.80;;;8.20;1.00;;;;;;5047585;28;21340;-76
2024/03/07 00:38:33;;;;;;;88.00;46.20;;;8.10;1.00;;;;;;5054505;28;20540;-77
2024/03/07 00:41:00;;;;;;;94.23;46.03;;;8.10;1.00;;;;;;5057196;28;20456;-76
2024/03/07 00:43:27;;;;;;;96.53;50.83;;;8.10;1.00;;;;;;5050009;28;21233;-77
2024/03/07 00:45:54;;;;;;;84.53;44.53;;;8.10;1.00;;;;;;5057628;28;20510;-77
2024/03/07 00:48:21;;;;;;;80.07;44.67;;;8.10;1.00;;;;;;5048254;28;21176;-76
2024/03/07 00:50:48;;;;;;;87.13;43.63;;;8.20;1.00;;;;;;5048420;28;20529;-75
2024/03/07 00:53:16;;;;;;;84.37;43.40;;;8.20;1.00;;;;;;5048332;28;20492;-76
2024/03/07 00:55:43;;;;;;;100.37;46.50;;;8.20;1.00;;;;;;5051312;28;20517;-76
2024/03/07 00:58:12;;;;;;;82.03;42.10;;;8.20;1.00;;;;;;5063002;28;21047;-77
2024/03/07 01:00:43;;;;;;;83.73;45.17;;;8.20;1.00;;;;;;5059922;28;20426;-75
2024/03/07 01:03:13;;;;;;;98.13;46.20;;;8.20;1.00;;;;;;5062831;28;21219;-76
2024/03/07 01:05:40;;;;;;;82.57;42.90;;;8.20;1.00;;;;;;5045100;28;20483;-73
2024/03/07 01:08:07;;;;;;;87.40;45.70;;;8.20;1.00;;;;;;5053927;28;20460;-76
2024/03/07 01:10:36;;;;;;;85.17;45.47;;;8.20;1.00;;;;;;5092618;27;20544;-74
2024/03/07 01:13:05;;;;;;;91.63;44.73;;;8.20;1.00;;;;;;5092842;28;20538;-76
2024/03/07 01:15:33;;;;;;;78.53;42.83;;;8.10;1.00;;;;;;5084790;27;20476;-74
2024/03/07 01:18:00;;;;;;;86.70;44.13;;;8.10;1.00;;;;;;5090329;28;21209;-75
2024/03/07 01:20:27;;;;;;;79.13;42.40;;;8.00;1.00;;;;;;5089962;28;20494;-76
2024/03/07 01:22:56;;;;;;;78.57;45.73;;;7.90;1.00;;;;;;5103439;27;20583;-75
2024/03/07 01:25:23;;;;;;;79.57;42.90;;;7.80;1.00;;;;;;5098054;27;20610;-76
2024/03/07 01:27:52;;;;;;;78.57;44.60;;;7.80;1.00;;;;;;5087939;28;20443;-77
2024/03/07 01:30:19;;;;;;;92.87;44.27;;;7.70;1.00;;;;;;5077384;28;20549;-74
2024/03/07 01:32:46;;;;;;;80.17;42.77;;;7.60;1.00;;;;;;5088787;27;20520;-75
2024/03/07 01:35:13;;;;;;;79.25;42.95;;;7.50;1.00;;;;;;5088834;27;20525;-77
2024/03/07 01:37:40;;;;;;;98.57;44.85;;;7.60;1.00;;;;;;5088451;28;20293;-74
2024/03/07 01:40:09;;;;;;;80.43;43.40;;;7.50;1.00;;;;;;5088289;28;20315;-74
2024/03/07 01:42:36;;;;;;;82.40;45.53;;;7.40;1.00;;;;;;5095618;27;20853;-75
2024/03/07 01:45:05;;;;;;;84.07;45.80;;;7.30;1.00;;;;;;5094250;27;20344;-77
2024/03/07 01:47:32;;;;;;;80.90;42.40;;;7.30;1.00;;;;;;5084126;28;20479;-75
2024/03/07 01:49:59;;;;;;;81.88;44.58;;;7.20;1.00;;;;;;5097020;27;20526;-74
2024/03/07 01:52:26;;;;;;;70.47;41.40;;;7.20;1.00;;;;;;5091234;27;20241;-74
2024/03/07 01:54:54;;;;;;;89.03;43.00;;;7.20;1.00;;;;;;5084528;28;20511;-75
2024/03/07 01:57:21;;;;;;;76.67;40.00;;;7.10;1.00;;;;;;5088814;28;20554;-76
2024/03/07 01:59:50;;;;;;;69.35;40.50;;;7.10;1.00;;;;;;5083916;28;20477;-76
2024/03/07 02:02:19;;;;;;;71.77;41.00;;;7.00;1.00;;;;;;5091701;28;21710;-76
2024/03/07 02:04:46;;;;;;;66.68;39.55;;;6.90;1.00;;;;;;5098907;27;20607;-79
2024/03/07 02:07:13;;;;;;;76.50;42.75;;;6.80;1.00;;;;;;5093245;28;20239;-76
2024/03/07 02:09:40;;;;;;;67.73;39.13;;;6.70;1.00;;;;;;5091528;28;20327;-76
2024/03/07 02:12:08;;;;;;;77.07;40.90;;;6.60;1.00;;;;;;5097726;27;21182;-76
2024/03/07 02:14:35;;;;;;;73.78;40.63;;;6.50;1.00;;;;;;5093490;27;20238;-75
2024/03/07 02:17:02;;;;;;;74.50;41.35;;;6.40;1.00;;;;;;5088358;27;20264;-76
2024/03/07 02:19:31;;;;;;;71.30;40.83;;;6.40;1.00;;;;;;5090695;27;20322;-76
2024/03/07 02:22:00;;;;;;;73.00;41.25;;;6.50;1.00;;;;;;5098159;27;20306;-77
2024/03/07 02:24:27;;;;;;;69.43;40.15;;;6.40;1.00;;;;;;5091960;28;20232;-76
2024/03/07 02:26:54;;;;;;;77.72;39.92;;;6.40;1.00;;;;;;5090374;28;20328;-78
2024/03/07 02:29:22;;;;;;;67.60;40.50;;;6.40;1.00;;;;;;5092179;28;20238;-76
2024/03/07 02:31:51;;;;;;;73.38;43.40;;;6.40;1.00;;;;;;5099235;27;20287;-76
2024/03/07 02:34:19;;;;;;;90.07;42.30;;;6.40;1.00;;;;;;5077410;28;20245;-78
2024/03/07 02:36:45;;;;;;;73.72;41.10;;;6.30;1.00;;;;;;5097948;27;20504;-77
2024/03/07 02:39:15;;;;;;;78.32;38.15;;;6.30;1.00;;;;;;5088165;28;20990;-76
2024/03/07 02:41:42;;;;;;;72.33;42.23;;;6.40;1.00;;;;;;5091490;28;20309;-76
2024/03/07 02:44:09;;;;;;;74.15;41.65;;;6.40;1.00;;;;;;5093552;27;20472;-77
2024/03/07 02:46:38;;;;;;;70.78;39.80;;;6.30;1.00;;;;;;5110348;27;20227;-76
2024/03/07 02:49:05;;;;;;;80.65;40.25;;;6.30;1.00;;;;;;5095493;27;21523;-77
2024/03/07 02:51:32;;;;;;;72.77;41.60;;;6.20;1.00;;;;;;5113417;27;20328;-77
2024/03/07 02:53:59;;;;;;;72.25;41.30;;;6.20;1.00;;;;;;5098401;27;20911;-76
2024/03/07 02:56:27;;;;;;;64.38;41.60;;;6.20;1.00;;;;;;5090582;28;20333;-78
2024/03/07 02:58:54;;;;;;;72.68;41.10;;;6.10;1.00;;;;;;5091727;28;20262;-78
2024/03/07 03:01:21;;;;;;;68.28;40.72;;;6.00;1.00;;;;;;5093089;28;20257;-77
2024/03/07 03:03:48;;;;;;;68.68;41.33;;;6.00;1.00;;;;;;5084664;28;20233;-77
2024/03/07 03:06:15;;;;;;;73.72;40.45;;;5.90;1.00;;;;;;5080532;28;20236;-78
2024/03/07 03:08:42;;;;;;;81.20;41.53;;;5.80;1.00;;;;;;5092516;28;21625;-77
2024/03/07 03:11:13;;;;;;;65.70;40.88;;;5.80;1.00;;;;;;5090157;28;20279;-75
2024/03/07 03:13:42;;;;;;;67.68;39.72;;;5.70;1.00;;;;;;5082331;27;20887;-73
2024/03/07 03:16:09;;;;;;;65.30;41.10;;;5.70;1.00;;;;;;5086525;28;20248;-73
2024/03/07 03:18:36;;;;;;;78.57;42.67;;;5.60;1.00;;;;;;5096040;27;21089;-73
2024/03/07 03:21:04;;;;;;;61.80;40.00;;;5.60;1.00;;;;;;5104976;27;20963;-72
2024/03/07 03:23:31;;;;;;;70.80;39.78;;;5.50;1.00;;;;;;5105318;27;20269;-73
2024/03/07 03:25:59;;;;;;;63.58;39.33;;;5.50;1.00;;;;;;5105519;27;20325;-75
2024/03/07 03:28:26;;;;;;;69.70;40.58;;;5.50;1.00;;;;;;5106338;27;20334;-74
2024/03/07 03:30:55;;;;;;;63.92;40.30;;;5.40;1.00;;;;;;5108635;27;20310;-74
2024/03/07 03:33:22;;;;;;;66.20;41.17;;;5.40;1.00;;;;;;5091171;27;20263;-73
2024/03/07 03:35:49;;;;;;;63.45;38.72;;;5.30;1.00;;;;;;5104728;27;20243;-74
2024/03/07 03:38:17;;;;;;;57.95;37.88;;;5.20;1.00;;;;;;5095915;27;20830;-73
2024/03/07 03:40:44;;;;;;;58.13;39.47;;;5.20;1.00;;;;;;5101428;27;20254;-72
2024/03/07 03:43:12;;;;;;;57.28;36.70;;;5.20;1.00;;;;;;5101724;27;20909;-72
2024/03/07 03:45:39;;;;;;;57.53;37.30;;;5.10;1.00;;;;;;5094522;27;20245;-72
2024/03/07 03:48:08;;;;;;;56.20;37.40;;;5.10;1.00;;;;;;5090804;28;20772;-75
2024/03/07 03:50:35;;;;;;;52.65;37.88;;;5.10;1.00;;;;;;5088896;27;20294;-74
2024/03/07 03:53:03;;;;;;;61.97;38.55;;;5.00;1.00;;;;;;5109050;27;20263;-73
2024/03/07 03:55:32;;;;;;;52.50;34.88;;;5.00;1.00;;;;;;5097077;27;20263;-73
2024/03/07 03:57:59;;;;;;;55.97;38.58;;;4.90;1.00;;;;;;5104745;27;20322;-72
2024/03/07 04:00:26;;;;;;;56.08;38.83;;;4.90;1.00;;;;;;5111756;27;20240;-74
2024/03/07 04:02:53;;;;;;;57.60;37.10;;;4.80;1.00;;;;;;5112897;27;20279;-74
2024/03/07 04:05:23;;;;;;;52.25;35.72;;;4.90;1.00;;;;;;5111923;27;20250;-73
2024/03/07 04:07:50;;;;;;;55.95;36.33;;;4.90;1.00;;;;;;5110523;27;20239;-73
2024/03/07 04:10:18;;;;;;;51.85;37.38;;;4.80;1.00;;;;;;5109101;27;20322;-75
2024/03/07 04:12:45;;;;;;;50.65;33.70;;;4.80;1.00;;;;;;5090009;28;20297;-71
2024/03/07 04:15:16;;;;;;;48.53;36.20;;;4.80;1.00;;;;;;5093484;28;20332;-73
2024/03/07 04:17:43;;;;;;;51.42;35.55;;;4.70;1.00;;;;;;5105187;27;20313;-74
2024/03/07 04:20:13;;;;;;;50.55;36.17;;;4.70;1.00;;;;;;5091982;28;20243;-75
2024/03/07 04:22:40;;;;;;;48.95;33.88;;;4.70;1.00;;;;;;5098754;27;20689;-76
2024/03/07 04:25:09;;;;;;;50.80;36.15;;;4.60;1.00;;;;;;5092181;28;20256;-79
2024/03/07 04:27:39;;;;;;;52.97;35.38;;;4.60;1.00;;;;;;5102618;27;20239;-77
2024/03/07 04:30:09;;;;;;;54.33;35.33;;;4.60;1.00;;;;;;5112841;27;20220;-78
2024/03/07 04:32:38;;;;;;;57.33;39.72;;;4.60;1.00;;;;;;5110939;27;20238;-77
2024/03/07 04:35:10;;;;;;;53.65;37.95;;;4.50;1.00;;;;;;5111310;27;20235;-76
2024/03/07 04:37:37;;;;;;;56.83;35.92;;;4.50;1.00;;;;;;5102036;27;20241;-76
2024/03/07 04:40:14;;;;;;;53.33;37.22;;;4.50;1.00;;;;;;5096544;27;20758;-78
2024/03/07 04:42:42;;;;;;;51.65;36.45;;;4.40;1.00;;;;;;5094702;27;21079;-77
2024/03/07 04:45:13;;;;;;;49.85;36.78;;;4.40;1.00;;;;;;5100419;27;20882;-77
2024/03/07 04:47:41;;;;;;;54.35;36.60;;;4.40;1.00;;;;;;5098950;27;20585;-77
2024/03/07 04:50:10;;;;;;;51.17;33.63;;;4.40;1.00;;;;;;5094088;28;20239;-77
2024/03/07 04:52:39;;;;;;;48.35;35.28;;;4.30;1.00;;;;;;5075180;28;20267;-78
2024/03/07 04:55:12;;;;;;;53.67;35.72;;;4.30;1.00;;;;;;5104813;27;20239;-76
2024/03/07 04:57:41;;;;;;;47.92;34.33;;;4.30;1.00;;;;;;5108802;27;20247;-77
2024/03/07 05:00:13;;;;;;;52.65;35.33;;;4.30;1.00;;;;;;5103015;27;20231;-78
2024/03/07 05:02:41;;;;;;;51.05;34.30;;;4.30;1.00;;;;;;5089491;28;20236;-77
2024/03/07 05:05:11;;;;;;;46.78;36.03;;;4.20;1.00;;;;;;5104338;27;20322;-77
2024/03/07 05:07:38;;;;;;;51.42;34.20;;;4.30;1.00;;;;;;5090257;28;20263;-77
2024/03/07 05:10:08;;;;;;;45.88;34.42;;;4.20;1.00;;;;;;5090962;28;20232;-77
2024/03/07 05:12:34;;;;;;;52.00;35.78;;;4.20;1.00;;;;;;5098957;27;20240;-76
2024/03/07 05:15:03;;;;;;;53.90;35.05;;;4.20;1.00;;;;;;5089401;28;20240;-76
2024/03/07 05:17:34;;;;;;;52.08;34.58;;;4.20;1.00;;;;;;5092052;28;20239;-77
2024/03/07 05:20:00;;;;;;;48.55;34.80;;;4.10;1.00;;;;;;5099571;27;20232;-77
2024/03/07 05:22:30;;;;;;;52.47;36.78;;;4.10;1.00;;;;;;5095179;27;21158;-76
2024/03/07 05:24:58;;;;;;;48.78;35.03;;;4.20;1.00;;;;;;5102120;27;20297;-77
2024/03/07 05:27:30;;;;;;;56.72;35.33;;;4.20;1.00;;;;;;5099298;27;20246;-75
2024/03/07 05:29:57;;;;;;;49.55;35.17;;;4.20;1.00;;;;;;5100753;27;20664;-78
2024/03/07 05:32:26;;;;;;;48.28;35.97;;;4.20;1.00;;;;;;5087151;28;20236;-73
2024/03/07 05:34:54;;;;;;;51.40;36.38;;;4.20;1.00;;;;;;5089483;28;20247;-73
2024/03/07 05:37:23;;;;;;;46.65;36.00;;;4.20;1.00;;;;;;5089626;28;20239;-73
2024/03/07 05:39:50;;;;;;;56.40;35.95;;;4.20;1.00;;;;;;5107973;27;20231;-74
2024/03/07 05:42:18;;;;;;;54.00;36.78;;;4.20;1.00;;;;;;5098995;27;20258;-75
2024/03/07 05:44:47;;;;;;;51.40;34.40;;;4.20;1.00;;;;;;5113771;27;20303;-72
2024/03/07 05:47:14;;;;;;;45.92;31.77;;;4.20;1.00;;;;;;5107394;27;20280;-75
2024/03/07 05:49:41;;;;;;;43.70;33.67;;;4.10;1.00;;;;;;5102307;27;20247;-75
2024/03/07 05:52:08;;;;;;;47.75;32.42;;;4.10;1.00;;;;;;5107299;27;20314;-75
2024/03/07 05:54:35;;;;;;;52.33;33.33;;;4.00;1.00;;;;;;5106111;27;20308;-74
2024/03/07 05:57:03;;;;;;;42.63;31.30;;;4.00;1.00;;;;;;5110060;27;20640;-75
2024/03/07 05:59:30;;;;;;;45.38;31.35;;;4.00;1.00;;;;;;5110637;27;20349;-73
2024/03/07 06:02:02;;;;;;;42.55;30.40;;;3.90;1.00;;;;;;5106004;27;20290;-75
2024/03/07 06:04:31;;;;;;;46.55;31.48;;;4.00;1.00;;;;;;5089584;28;21173;-75
2024/03/07 06:06:59;;;;;;;42.45;30.30;;;4.00;1.00;;;;;;5067094;27;20276;-74
2024/03/07 06:09:26;;;;;;;46.80;33.45;;;4.00;1.00;;;;;;5100841;27;20235;-73
2024/03/07 06:11:53;;;;;;;44.60;30.80;;;4.10;1.00;;;;;;5084391;28;20281;-73
2024/03/07 06:14:20;;;;;;;50.35;33.80;;;4.10;1.00;;;;;;5097382;27;20514;-74
2024/03/07 06:16:48;;;;;;;43.75;30.95;;;4.10;1.00;;;;;;5086963;28;20263;-74
2024/03/07 06:19:17;;;;;;;49.08;33.00;;;4.10;1.00;;;;;;5087950;28;20941;-74
2024/03/07 06:21:44;;;;;;;42.20;29.77;;;4.10;1.00;;;;;;5087168;28;20236;-75
2024/03/07 06:24:15;;;;;;;41.63;31.20;;;4.10;1.00;;;;;;5095267;27;20236;-78
2024/03/07 06:26:59;;;;;;;43.25;31.25;;;4.20;1.00;;;;;;5109564;27;20239;-73
2024/03/07 06:29:35;;;;;;;36.35;28.60;;;4.10;1.00;;;;;;5093583;27;20236;-74
2024/03/07 06:32:02;;;;;;;36.72;27.65;;;4.10;1.00;;;;;;5082877;28;20449;-73
2024/03/07 06:34:31;;;;;;;38.13;27.08;;;4.20;1.00;;;;;;5103096;27;20322;-74
2024/03/07 06:36:58;;;;;;;41.28;27.73;;;4.20;1.00;;;;;;5090495;28;20734;-74
2024/03/07 06:39:27;;;;;;;37.90;27.83;;;4.20;1.00;;;;;;5104196;27;20247;-73
2024/03/07 06:41:54;;;;;;;34.85;26.42;;;4.30;1.00;;;;;;5109633;27;20326;-77
2024/03/07 06:44:23;;;;;;;36.53;25.65;;;4.30;1.00;;;;;;5090688;27;20239;-77
2024/03/07 06:46:50;;;;;;;32.83;26.40;;;4.30;1.00;;;;;;5086276;27;20714;-76
2024/03/07 06:49:17;;;;;;;32.92;26.02;;;4.30;1.00;;;;;;5108209;27;20239;-75
2024/03/07 06:51:46;;;;;;;30.13;24.08;;;4.30;1.00;;;;;;5095657;27;20755;-77
2024/03/07 06:54:15;;;;;;;31.15;25.20;;;4.30;1.00;;;;;;5079484;28;20289;-75
2024/03/07 06:56:44;;;;;;;30.27;22.90;;;4.40;1.00;;;;;;5088687;28;20235;-78
2024/03/07 06:59:14;;;;;;;29.17;25.02;;;4.50;1.00;;;;;;5099096;27;20266;-74
2024/03/07 07:01:42;;;;;;;32.42;24.63;;;4.50;1.00;;;;;;5106814;27;20245;-75
2024/03/07 07:04:10;;;;;;;33.97;25.75;;;4.40;1.00;;;;;;5112845;27;20237;-75
2024/03/07 07:06:43;;;;;;;38.60;27.75;;;4.50;1.00;;;;;;5108672;27;20242;-76
2024/03/07 07:09:12;;;;;;;36.53;25.73;;;4.50;1.00;;;;;;5112462;27;20229;-74
2024/03/07 07:11:38;;;;;;;38.17;27.27;;;4.60;1.00;;;;;;5102297;27;20716;-76
2024/03/07 07:14:06;;;;;;;34.15;24.20;;;4.70;1.00;;;;;;5090898;27;20240;-75
2024/03/07 07:16:35;;;;;;;34.85;24.15;;;4.70;1.00;;;;;;5092084;28;20249;-74
2024/03/07 07:19:03;;;;;;;29.83;23.17;;;4.80;1.00;;;;;;5091560;28;20302;-76
2024/03/07 07:21:30;;;;;;;27.08;23.85;;;5.00;1.00;;;;;;5086767;28;20244;-74
2024/03/07 07:23:57;;;;;;;28.70;21.77;;;5.10;1.00;;;;;;5095424;28;20247;-75
2024/03/07 07:26:26;;;;;;;27.65;21.90;;;5.20;1.00;;;;;;5095668;28;20255;-74
2024/03/07 07:28:54;;;;;;;32.33;23.13;;;5.30;1.00;;;;;;5097107;27;20267;-75
2024/03/07 07:31:21;;;;;;;29.63;22.42;;;5.30;1.00;;;;;;5115023;27;20261;-74
2024/03/07 07:33:53;;;;;;;35.47;23.00;;;5.30;1.00;;;;;;5096636;28;20679;-77
2024/03/07 07:36:21;;;;;;;28.95;21.60;;;5.40;1.00;;;;;;5097875;27;20267;-78
2024/03/07 07:38:47;;;;;;;27.75;21.73;;;5.40;1.00;;;;;;5093480;28;20960;-75
2024/03/07 07:41:15;;;;;;;24.42;20.33;;;5.40;1.00;;;;;;5095406;28;20285;-75
2024/03/07 07:43:43;;;;;;;25.83;20.90;;;5.50;1.00;;;;;;5088647;28;20983;-76
2024/03/07 07:46:11;;;;;;;22.80;18.55;;;5.60;1.00;;;;;;5091399;28;20319;-77
2024/03/07 07:48:38;;;;;;;25.98;20.30;;;5.50;1.00;;;;;;5089808;28;20212;-77
2024/03/07 07:51:07;;;;;;;29.70;22.20;;;5.60;1.00;;;;;;5090803;28;20765;-78
2024/03/07 07:53:36;;;;;;;26.73;19.90;;;5.80;1.00;;;;;;5100467;27;20272;-77
2024/03/07 07:56:03;;;;;;;22.95;20.42;;;5.80;1.00;;;;;;5098759;27;20306;-79
2024/03/07 07:58:31;;;;;;;29.88;20.90;;;5.80;1.00;;;;;;5095228;27;20233;-77
2024/03/07 08:01:01;;;;;;;23.27;19.67;;;5.90;1.00;;;;;;5105249;27;20356;-77
2024/03/07 08:03:28;;;;;;;30.35;22.08;;;6.00;1.00;;;;;;5097684;27;20237;-77
2024/03/07 08:05:55;;;;;;;23.27;20.77;;;6.00;1.00;;;;;;5108331;27;21134;-78
2024/03/07 08:08:22;;;;;;;28.42;22.13;;;6.10;1.00;;;;;;5110914;27;20236;-78
2024/03/07 08:10:49;;;;;;;24.67;19.10;;;6.20;1.00;;;;;;5108772;27;20926;-78
2024/03/07 08:13:16;;;;;;;31.15;19.95;;;6.30;1.00;;;;;;5116647;27;20236;-77
2024/03/07 08:15:44;;;;;;;23.73;20.65;;;6.30;1.00;;;;;;5097017;27;20312;-79
2024/03/07 08:18:15;;;;;;;22.55;19.50;;;6.40;1.00;;;;;;5090503;28;20237;-78
2024/03/07 08:20:43;;;;;;;22.75;20.02;;;6.50;1.00;;;;;;5091336;28;20246;-78
2024/03/07 08:23:11;;;;;;;24.70;18.45;;;6.70;1.00;;;;;;5093828;28;20242;-78
2024/03/07 08:25:39;;;;;;;29.35;20.05;;;6.80;1.00;;;;;;5093910;28;20237;-79
2024/03/07 08:28:06;;;;;;;23.48;19.35;;;6.90;1.00;;;;;;5091715;28;20760;-78
2024/03/07 08:30:33;;;;;;;20.55;18.45;;;7.00;1.00;;;;;;5090415;28;20252;-78
2024/03/07 08:33:03;;;;;;;26.92;19.30;;;7.20;1.00;;;;;;5086526;28;20246;-77
2024/03/07 08:35:31;;;;;;;23.50;18.83;;;7.30;1.00;;;;;;5087807;27;20322;-79
2024/03/07 08:37:58;;;;;;;22.43;17.60;;;7.40;1.00;;;;;;5090164;28;20947;-78
2024/03/07 08:40:30;;;;;;;19.77;17.77;;;7.50;1.00;;;;;;5088559;28;20565;-78
2024/03/07 08:42:58;;;;;;;21.10;17.87;;;7.60;1.00;;;;;;5094140;27;20501;-79
2024/03/07 08:45:25;;;;;;;31.20;19.98;;;7.70;1.00;;;;;;5094168;28;21324;-78
2024/03/07 08:47:54;;;;;;;25.63;19.07;;;7.70;1.00;;;;;;5092241;28;20931;-77
2024/03/07 08:50:22;;;;;;;26.02;18.52;;;7.80;1.00;;;;;;5100370;27;20564;-77
2024/03/07 08:52:53;;;;;;;20.53;18.33;;;7.90;1.00;;;;;;5110491;27;20292;-77
2024/03/07 08:55:24;;;;;;;24.30;17.97;;;8.00;1.00;;;;;;5100145;27;20469;-78
2024/03/07 08:57:51;;;;;;;18.37;15.53;;;8.20;1.00;;;;;;5101501;27;20965;-78
2024/03/07 09:00:23;;;;;;;20.07;16.87;;;8.40;1.00;;;;;;5091082;28;20601;-77
2024/03/07 09:02:52;;;;;;;19.97;16.33;;;8.80;1.00;;;;;;5083096;28;20462;-76
2024/03/07 09:05:21;;;;;;;22.33;17.87;;;9.90;1.00;;;;;;5089163;28;20466;-76
2024/03/07 09:07:52;;;;;;;21.73;16.37;;;11.10;1.00;;;;;;5087959;28;20463;-73
2024/03/07 09:10:20;;;;;;;20.33;16.77;;;12.40;1.00;;;;;;5090780;27;21010;-78
2024/03/07 09:12:49;;;;;;;20.30;18.20;;;13.20;1.00;;;;;;5090641;27;20926;-77
2024/03/07 09:15:17;;;;;;;19.20;16.53;;;13.60;1.00;;;;;;5092433;27;21095;-77
2024/03/07 09:17:45;;;;;;;20.70;16.20;;;14.10;1.00;;;;;;5092395;27;20539;-75
2024/03/07 09:20:15;;;;;;;17.90;15.80;;;14.50;1.00;;;;;;5104830;27;20491;-76
2024/03/07 09:22:42;;;;;;;16.63;14.93;;;15.10;1.00;;;;;;5088208;28;20528;-75
2024/03/07 09:25:14;;;;;;;15.87;14.27;;;16.00;1.00;;;;;;5088816;28;20431;-76
2024/03/07 09:27:42;;;;;;;17.70;15.80;;;16.60;1.00;;;;;;5094011;28;20446;-77
2024/03/07 09:30:11;;;;;;;18.10;15.50;;;16.80;1.00;;;;;;5090027;28;20477;-75
2024/03/07 09:32:39;;;;;;;21.33;15.70;;;17.00;1.00;;;;;;5104897;27;20985;-76
2024/03/07 09:35:11;;;;;;;16.63;14.83;;;17.40;1.00;;;;;;5114689;27;20446;-73
2024/03/07 09:37:41;;;;;;;17.63;14.93;;;17.40;1.00;;;;;;5099874;27;20543;-75
2024/03/07 09:40:12;;;;;;;16.50;14.03;;;17.20;1.00;;;;;;5092892;27;20554;-76
2024/03/07 09:42:45;;;;;;;16.70;14.37;;;17.50;1.00;;;;;;5090139;28;20503;-76
2024/03/07 09:45:16;;;;;;;16.30;13.83;;;17.90;1.00;;;;;;5089690;28;20459;-76
2024/03/07 09:47:45;;;;;;;15.93;14.37;;;17.80;1.00;;;;;;5092859;27;21578;-77
2024/03/07 09:50:14;;;;;;;15.93;13.50;;;17.20;1.00;;;;;;5091441;27;20446;-77
2024/03/07 09:52:44;;;;;;;14.50;12.70;;;17.10;1.00;;;;;;5091840;28;20489;-77
2024/03/07 09:55:13;;;;;;;15.30;12.57;;;16.40;1.00;;;;;;5088874;27;20450;-79
2024/03/07 09:57:44;;;;;;;18.47;14.63;;;16.00;1.00;;;;;;5089224;28;20474;-77
2024/03/07 10:00:22;;;;;;;14.70;13.20;;;15.50;1.00;;;;;;5091916;28;20477;-78
2024/03/07 10:02:54;;;;;;;14.60;12.93;;;14.90;1.00;;;;;;5100784;28;20850;-78
2024/03/07 10:05:23;;;;;;;14.27;12.87;;;14.70;1.00;;;;;;5100705;27;20487;-78
2024/03/07 10:07:51;;;;;;;16.97;13.17;;;13.70;1.00;;;;;;5090797;27;20483;-78
2024/03/07 10:10:21;;;;;;;16.17;12.60;;;13.50;1.00;;;;;;5082003;28;20469;-78
2024/03/07 10:12:52;;;;;;;14.00;12.20;;;14.10;1.00;;;;;;5070642;28;20448;-77
2024/03/07 10:15:19;;;;;;;16.50;13.10;;;13.40;1.00;;;;;;5072856;28;20464;-76
2024/03/07 10:17:46;;;;;;;15.37;12.70;;;12.60;1.00;;;;;;5070383;28;20516;-77
2024/03/07 10:20:14;;;;;;;13.70;12.27;;;12.70;1.00;;;;;;5071130;28;20480;-76
2024/03/07 10:22:42;;;;;;;17.67;12.10;;;12.40;1.00;;;;;;5066801;28;20455;-76
2024/03/07 10:25:10;;;;;;;14.30;13.00;;;12.80;1.00;;;;;;5050531;28;20453;-77
2024/03/07 10:27:40;;;;;;;16.23;13.53;;;13.00;1.00;;;;;;5050148;28;20496;-75
2024/03/07 10:30:09;;;;;;;15.20;13.63;;;13.10;1.00;;;;;;5052928;28;20479;-76
2024/03/07 10:32:37;;;;;;;14.43;12.83;;;13.50;1.00;;;;;;5049092;28;20506;-77
2024/03/07 10:35:06;;;;;;;15.97;13.13;;;14.50;1.00;;;;;;5056605;28;20489;-77
2024/03/07 10:37:36;;;;;;;14.37;12.93;;;15.40;1.00;;;;;;5068370;28;20468;-76
2024/03/07 10:40:15;;;;;;;13.90;12.30;;;16.10;1.00;;;;;;5052175;28;21279;-76
2024/03/07 10:42:51;;;;;;;15.63;12.70;;;16.00;1.00;;;;;;5058545;28;20467;-78
2024/03/07 10:45:21;;;;;;;12.90;11.33;;;16.20;1.00;;;;;;5048290;28;21422;-77
2024/03/07 10:47:53;;;;;;;14.47;13.00;;;17.70;1.00;;;;;;5050565;28;20480;-76
2024/03/07 10:50:32;;;;;;;14.50;12.60;;;18.10;1.00;;;;;;5054200;28;20473;-76
2024/03/07 10:53:06;;;;;;;14.17;12.77;;;18.20;1.00;;;;;;5060596;28;20531;-78
2024/03/07 10:55:40;;;;;;;14.50;13.10;;;18.20;1.00;;;;;;5059274;28;20560;-75
2024/03/07 10:58:16;;;;;;;14.37;12.70;;;17.10;1.00;;;;;;5072792;28;20479;-75
2024/03/07 11:00:46;;;;;;;14.03;12.63;;;16.20;1.00;;;;;;5069202;28;20470;-76
2024/03/07 11:03:20;;;;;;;14.20;12.80;;;15.70;1.00;;;;;;5071435;28;20524;-76
2024/03/07 11:05:48;;;;;;;15.47;13.97;;;15.50;1.00;;;;;;5066067;28;20463;-77
2024/03/07 11:08:16;;;;;;;17.60;15.00;;;15.60;1.00;;;;;;5050802;28;20448;-77
2024/03/07 11:10:47;;;;;;;14.83;13.23;;;15.90;1.00;;;;;;5092869;27;20446;-79
2024/03/07 11:13:16;;;;;;;14.17;12.10;;;16.70;1.00;;;;;;5092126;28;20594;-76
2024/03/07 11:15:46;;;;;;;16.50;14.00;;;16.60;1.00;;;;;;5091189;27;20462;-76
2024/03/07 11:18:17;;;;;;;19.70;14.10;;;16.70;1.00;;;;;;5093315;28;20458;-76
2024/03/07 11:20:46;;;;;;;13.80;12.40;;;17.70;1.00;;;;;;5090928;28;20472;-78
2024/03/07 11:23:32;;;;;;;13.97;12.23;;;18.60;1.00;;;;;;5091430;28;20477;-76
2024/03/07 11:26:07;;;;;;;14.80;13.30;;;19.30;1.00;;;;;;5091544;27;20551;-77
2024/03/07 11:28:38;;;;;;;17.03;13.53;;;19.90;1.00;;;;;;5088676;27;20507;-77
2024/03/07 11:31:17;;;;;;;13.03;11.77;;;21.10;1.00;;;;;;5098572;27;20847;-77
2024/03/07 11:34:14;;;;;;;16.73;13.07;;;21.50;1.00;;;;;;5093194;28;20545;-77
2024/03/07 11:36:44;;;;;;;13.53;12.13;;;21.60;1.00;;;;;;5086012;27;20536;-78
2024/03/07 11:39:42;;;;;;;15.23;13.63;;;21.30;1.00;;;;;;5111545;27;20541;-78
2024/03/07 11:42:09;;;;;;;15.27;13.77;;;20.50;1.00;;;;;;5103590;27;20462;-79
2024/03/07 11:44:42;;;;;;;15.63;14.03;;;21.30;1.00;;;;;;5089105;28;20518;-76
2024/03/07 11:47:09;;;;;;;14.67;13.27;;;22.30;1.00;;;;;;5088628;28;20968;-76
2024/03/07 11:49:37;;;;;;;20.07;14.10;;;23.90;1.00;;;;;;5091247;28;20468;-78
2024/03/07 11:52:11;;;;;;;15.17;13.57;;;25.40;1.00;;;;;;5099880;27;20468;-79
2024/03/07 11:54:40;;;;;;;14.73;13.23;;;25.60;1.00;;;;;;5093883;28;20514;-76
2024/03/07 11:57:12;;;;;;;17.50;15.73;;;25.70;1.00;;;;;;5094456;28;20464;-77
2024/03/07 11:59:45;;;;;;;20.57;15.90;;;24.90;1.00;;;;;;5092221;28;20468;-76
2024/03/07 12:02:13;;;;;;;16.57;14.97;;;25.40;1.00;;;;;;5090816;28;20468;-76
2024/03/07 12:04:43;;;;;;;15.70;14.30;;;24.50;1.00;;;;;;5084331;28;20517;-77
2024/03/07 12:07:11;;;;;;;16.87;15.27;;;23.80;1.00;;;;;;5097294;28;20463;-77
2024/03/07 12:09:39;;;;;;;18.00;16.20;;;23.50;1.00;;;;;;5093349;28;20419;-77
2024/03/07 12:12:07;;;;;;;15.73;14.23;;;23.20;1.00;;;;;;5093800;28;20535;-77
2024/03/07 12:14:35;;;;;;;15.83;14.33;;;23.30;1.00;;;;;;5091668;28;20476;-79
2024/03/07 12:17:05;;;;;;;18.30;15.13;;;23.30;1.00;;;;;;5090928;28;20487;-78
2024/03/07 12:19:33;;;;;;;16.47;14.77;;;23.40;1.00;;;;;;5083046;28;20431;-78
2024/03/07 12:22:04;;;;;;;16.53;14.73;;;23.20;1.00;;;;;;5106960;27;20588;-79
2024/03/07 12:24:31;;;;;;;15.23;13.93;;;22.70;1.00;;;;;;5093467;28;21231;-76
2024/03/07 12:27:10;;;;;;;16.53;14.93;;;23.60;1.00;;;;;;5095080;28;20901;-79
2024/03/07 12:29:38;;;;;;;16.67;14.97;;;23.00;1.00;;;;;;5092512;28;20808;-76
2024/03/07 12:32:08;;;;;;;16.10;14.60;;;24.00;1.00;;;;;;5094305;28;20474;-77
2024/03/07 12:34:40;;;;;;;15.97;14.43;;;24.20;1.00;;;;;;5092673;28;20478;-77
2024/03/07 12:37:10;;;;;;;17.43;15.63;;;23.50;1.00;;;;;;5094152;28;20462;-76
2024/03/07 12:39:46;;;;;;;16.33;14.80;;;23.00;1.00;;;;;;5090684;28;20540;-76
2024/03/07 12:42:16;;;;;;;19.50;17.50;;;22.70;1.00;;;;;;5092885;27;20476;-76
2024/03/07 12:44:45;;;;;;;16.17;14.70;;;22.40;1.00;;;;;;5093210;28;20512;-76
2024/03/07 12:47:14;;;;;;;17.80;16.00;;;22.60;1.00;;;;;;5094909;27;20430;-78
2024/03/07 12:49:42;;;;;;;17.67;16.17;;;22.70;1.00;;;;;;5089535;27;21368;-76
2024/03/07 12:52:12;;;;;;;19.27;17.30;;;22.40;1.00;;;;;;5093811;28;20458;-77